createdAt,value
2023-03-05T09:33:24.894Z,4.00
2023-03-05T10:20:23.503Z,11.80
2023-03-05T10:25:44.133Z,11.70
2023-03-05T10:31:04.987Z,11.70
2023-03-05T10:36:45.713Z,12.00
2023-03-05T10:42:08.042Z,11.80
2023-03-05T10:47:50.821Z,11.30
2023-03-05T10:53:44.647Z,11.50
2023-03-05T10:58:46.739Z,11.60
2023-03-05T11:04:03.763Z,11.80
2023-03-05T11:09:38.572Z,12.10
2023-03-05T11:15:02.909Z,11.90
2023-03-05T11:20:32.958Z,12.00
2023-03-05T11:25:49.732Z,12.60
2023-03-05T11:31:16.565Z,13.00
2023-03-05T11:36:39.134Z,12.60
2023-03-05T11:42:06.651Z,12.30
2023-03-05T11:47:26.111Z,12.30
2023-03-05T11:52:44.995Z,12.20
2023-03-05T11:58:01.444Z,12.70
2023-03-05T12:03:14.110Z,12.20
2023-03-05T12:08:27.005Z,12.30
2023-03-05T12:13:48.849Z,12.20
2023-03-05T12:19:33.102Z,11.90
2023-03-05T12:35:36.282Z,11.90
2023-03-05T12:40:38.492Z,12.70
2023-03-05T12:45:42.492Z,12.40
2023-03-05T12:50:48.519Z,12.10
2023-03-05T12:56:26.612Z,12.20
2023-03-05T13:01:57.515Z,11.90
2023-03-05T13:07:12.688Z,12.50
2023-03-05T13:12:14.914Z,12.50
2023-03-05T13:58:54.201Z,11.80
2023-03-05T15:00:28.974Z,12.20
2023-03-05T15:05:31.822Z,9.40
2023-03-05T15:10:34.088Z,9.40
2023-03-05T15:15:36.334Z,9.50
2023-03-05T15:20:39.917Z,9.50
2023-03-05T15:25:42.370Z,9.40
2023-03-05T15:30:48.036Z,9.40
2023-03-05T15:35:50.200Z,9.40
2023-03-05T15:40:53.018Z,9.40
2023-03-05T15:45:55.227Z,9.40
2023-03-05T15:50:57.337Z,9.30
2023-03-05T15:55:59.375Z,9.10
2023-03-05T16:01:01.749Z,9.10
2023-03-05T16:06:05.651Z,9.30
2023-03-05T16:11:08.567Z,8.90
2023-03-05T16:16:11.302Z,8.90
2023-03-05T16:21:14.621Z,9.00
2023-03-05T16:26:17.046Z,9.00
2023-03-05T16:31:19.182Z,9.00
2023-03-05T16:36:25.752Z,9.00
2023-03-05T16:41:28.022Z,9.10
2023-03-05T16:46:35.154Z,9.00
2023-03-05T16:51:40.196Z,9.10
2023-03-05T16:56:42.375Z,9.00
2023-03-05T17:01:44.924Z,9.00
2023-03-05T17:06:49.299Z,8.90
2023-03-05T17:11:53.269Z,8.90
2023-03-05T17:16:55.403Z,8.90
2023-03-05T17:21:57.678Z,8.90
2023-03-05T17:57:16.263Z,8.50
2023-03-05T18:02:18.354Z,8.80
2023-03-05T18:07:20.390Z,8.80
2023-03-05T18:12:22.529Z,8.80
2023-03-05T18:17:24.779Z,8.70
2023-03-05T18:22:27.067Z,8.40
2023-03-05T18:27:31.227Z,8.10
2023-03-05T18:32:33.721Z,8.30
2023-03-05T18:37:38.289Z,8.20
2023-03-05T18:42:40.391Z,8.20
2023-03-05T18:47:43.923Z,8.20
2023-03-05T18:52:46.402Z,8.10
2023-03-05T18:57:49.330Z,8.50
2023-03-05T19:02:51.945Z,8.10
2023-03-05T19:07:55.617Z,8.20
2023-03-05T19:23:25.412Z,7.40
2023-03-05T19:28:30.142Z,7.60
2023-03-05T19:33:32.578Z,7.80
2023-03-05T19:38:34.796Z,8.30
2023-03-05T19:43:37.838Z,8.40
2023-03-05T19:48:41.200Z,8.60
2023-03-05T19:53:44.105Z,8.70
2023-03-05T19:58:48.968Z,8.60
2023-03-05T20:03:54.909Z,8.10
2023-03-05T20:08:58.024Z,7.60
2023-03-05T20:14:00.283Z,7.40
2023-03-05T20:19:05.555Z,7.20
2023-03-05T20:24:13.164Z,7.10
2023-03-05T20:29:18.111Z,7.20
2023-03-05T20:34:21.026Z,7.80
2023-03-05T20:39:23.004Z,8.20
2023-03-05T20:44:25.281Z,7.60
2023-03-05T20:49:27.541Z,7.40
2023-03-05T20:54:29.645Z,7.60
2023-03-05T20:59:31.841Z,7.50
2023-03-05T21:04:34.333Z,7.40
2023-03-05T21:09:36.524Z,7.50
2023-03-05T21:14:40.592Z,7.90
2023-03-05T21:19:42.708Z,7.80
2023-03-05T21:25:02.152Z,7.70
2023-03-05T21:30:05.479Z,8.00
2023-03-05T21:35:08.232Z,8.20
2023-03-05T21:40:14.236Z,8.50
2023-03-05T21:45:21.631Z,8.60
2023-03-05T21:50:25.415Z,8.50
2023-03-05T21:55:33.144Z,8.50
2023-03-05T22:00:35.504Z,8.20
2023-03-05T22:05:37.523Z,7.90
2023-03-05T22:10:41.431Z,8.10
2023-03-05T22:15:58.049Z,8.00
2023-03-05T22:21:01.058Z,7.80
2023-03-05T22:26:07.095Z,7.50
2023-03-05T22:31:10.436Z,7.60
2023-03-05T22:36:14.618Z,7.90
2023-03-05T22:41:19.951Z,7.30
2023-03-05T22:46:26.176Z,7.30
2023-03-05T22:51:28.297Z,6.80
2023-03-05T22:56:30.375Z,6.70
2023-03-05T23:01:32.776Z,6.70
2023-03-05T23:06:35.088Z,6.50
